createdAt,value
2023-04-08T00:02:07.296Z,6.70
2023-04-08T00:04:35.779Z,6.70
2023-04-08T00:07:04.110Z,6.70
2023-04-08T00:09:33.736Z,6.70
2023-04-08T00:12:02.367Z,6.70
2023-04-08T00:14:30.752Z,6.70
2023-04-08T00:16:58.855Z,6.70
2023-04-08T00:19:26.981Z,6.70
2023-04-08T00:21:55.227Z,6.70
2023-04-08T00:24:23.821Z,6.70
2023-04-08T00:26:53.257Z,6.70
2023-04-08T00:29:21.694Z,6.70
2023-04-08T00:31:49.739Z,6.80
2023-04-08T00:34:17.765Z,6.70
2023-04-08T00:36:47.099Z,6.80
2023-04-08T00:39:15.768Z,6.80
2023-04-08T00:41:44.127Z,6.80
2023-04-08T00:44:13.688Z,6.80
2023-04-08T00:46:41.819Z,6.80
2023-04-08T00:49:09.902Z,6.70
2023-04-08T00:51:38.007Z,6.70
2023-04-08T00:54:06.355Z,6.60
2023-04-08T00:56:35.427Z,6.70
2023-04-08T00:59:04.501Z,6.70
2023-04-08T01:01:44.445Z,6.80
2023-04-08T01:04:22.748Z,6.70
2023-04-08T01:06:55.482Z,6.70
2023-04-08T01:09:29.010Z,6.70
2023-04-08T01:11:58.855Z,6.70
2023-04-08T01:14:29.202Z,6.80
2023-04-08T01:17:29.243Z,6.80
2023-04-08T01:20:00.494Z,6.80
2023-04-08T01:22:42.193Z,6.80
2023-04-08T01:25:14.006Z,6.70
2023-04-08T01:27:44.253Z,6.80
2023-04-08T01:30:13.521Z,6.80
2023-04-08T01:32:43.826Z,6.70
2023-04-08T01:35:12.448Z,6.70
2023-04-08T01:37:41.562Z,6.70
2023-04-08T01:40:11.521Z,6.70
2023-04-08T01:42:40.429Z,6.70
2023-04-08T01:45:12.043Z,6.80
2023-04-08T01:47:41.237Z,6.90
2023-04-08T01:50:11.191Z,6.90
2023-04-08T01:52:41.772Z,6.90
2023-04-08T01:55:10.304Z,6.80
2023-04-08T01:57:39.724Z,6.80
2023-04-08T02:00:11.193Z,6.80
2023-04-08T02:02:49.170Z,6.80
2023-04-08T02:05:17.709Z,7.00
2023-04-08T02:07:46.748Z,7.00
2023-04-08T02:10:14.892Z,6.90
2023-04-08T02:12:44.078Z,7.00
2023-04-08T02:15:14.969Z,6.90
2023-04-08T02:17:47.092Z,6.90
2023-04-08T02:20:20.111Z,6.90
2023-04-08T02:22:51.594Z,6.90
2023-04-08T02:25:24.725Z,6.90
2023-04-08T02:27:54.070Z,6.90
2023-04-08T02:30:26.522Z,6.80
2023-04-08T02:32:55.564Z,6.80
2023-04-08T02:35:24.604Z,6.80
2023-04-08T02:37:52.977Z,6.80
2023-04-08T02:40:28.833Z,6.80
2023-04-08T02:42:58.029Z,6.80
2023-04-08T02:45:31.465Z,6.80
2023-04-08T02:48:01.955Z,6.80
2023-04-08T02:50:30.083Z,6.80
2023-04-08T02:52:58.115Z,6.80
2023-04-08T02:55:26.208Z,6.80
2023-04-08T02:57:54.272Z,6.90
2023-04-08T03:00:22.418Z,6.90
2023-04-08T03:02:51.993Z,6.90
2023-04-08T03:05:20.485Z,6.80
2023-04-08T03:07:48.578Z,6.80
2023-04-08T03:10:16.805Z,6.80
2023-04-08T03:12:44.799Z,6.80
2023-04-08T03:15:12.807Z,6.70
2023-04-08T03:17:40.913Z,6.70
2023-04-08T03:20:11.323Z,6.80
2023-04-08T03:22:39.371Z,6.80
2023-04-08T03:25:08.234Z,6.70
2023-04-08T03:27:36.303Z,6.70
2023-04-08T03:30:04.602Z,6.70
2023-04-08T03:32:33.708Z,6.70
2023-04-08T03:35:01.745Z,6.80
2023-04-08T03:37:31.129Z,6.80
2023-04-08T03:39:59.160Z,6.80
2023-04-08T03:42:27.288Z,6.70
2023-04-08T03:44:55.293Z,6.80
2023-04-08T03:47:23.338Z,6.80
2023-04-08T03:49:53.544Z,6.80
2023-04-08T03:52:21.620Z,6.80
2023-04-08T03:54:50.991Z,6.80
2023-04-08T03:57:19.020Z,6.70
2023-04-08T03:59:47.033Z,6.70
2023-04-08T04:02:15.089Z,6.70
2023-04-08T04:04:43.215Z,6.80
2023-04-08T04:07:11.247Z,6.70
2023-04-08T04:09:39.341Z,6.70
2023-04-08T04:12:08.729Z,6.80
2023-04-08T04:14:36.793Z,6.70
2023-04-08T04:17:04.857Z,6.70
2023-04-08T04:19:33.148Z,6.60
2023-04-08T04:22:01.242Z,6.70
2023-04-08T04:24:29.232Z,6.70
2023-04-08T04:26:57.297Z,6.70
2023-04-08T04:29:26.687Z,6.70
2023-04-08T04:31:54.717Z,6.70
2023-04-08T04:34:22.814Z,6.70
2023-04-08T04:36:50.820Z,6.70
2023-04-08T04:39:18.839Z,6.70
2023-04-08T04:41:49.009Z,6.60
2023-04-08T04:44:17.062Z,6.60
2023-04-08T04:46:46.605Z,6.60
2023-04-08T04:49:14.705Z,6.60
2023-04-08T04:51:42.756Z,6.60
2023-04-08T04:54:10.772Z,6.60
2023-04-08T04:56:38.819Z,6.60
2023-04-08T04:59:06.915Z,6.60
2023-04-08T05:01:34.954Z,6.70
2023-04-08T05:04:04.415Z,6.60
2023-04-08T05:06:32.427Z,6.60
2023-04-08T05:09:00.539Z,6.60
2023-04-08T05:11:28.578Z,6.60
2023-04-08T05:13:56.636Z,6.60
2023-04-08T05:16:24.834Z,6.60
2023-04-08T05:18:53.031Z,6.70
2023-04-08T05:21:22.551Z,6.60
2023-04-08T05:23:52.931Z,6.70
2023-04-08T05:26:21.733Z,6.60
2023-04-08T05:28:50.033Z,6.60
2023-04-08T05:31:18.428Z,6.60
2023-04-08T05:33:46.524Z,6.60
2023-04-08T05:36:15.337Z,6.50
2023-04-08T05:38:44.747Z,6.60
2023-04-08T05:41:12.811Z,6.50
2023-04-08T05:43:41.267Z,6.50
2023-04-08T05:46:09.811Z,6.50
2023-04-08T05:48:38.162Z,6.50
2023-04-08T05:51:06.224Z,6.50
2023-04-08T05:53:34.253Z,6.60
2023-04-08T05:56:03.661Z,6.60
2023-04-08T05:58:31.700Z,6.60
2023-04-08T06:00:59.857Z,6.50
2023-04-08T06:03:28.127Z,6.50
2023-04-08T06:05:56.484Z,6.50
2023-04-08T06:08:24.774Z,6.60
2023-04-08T06:10:52.874Z,6.70
2023-04-08T06:13:22.260Z,6.60
2023-04-08T06:15:50.291Z,6.60
2023-04-08T06:18:18.464Z,6.50
2023-04-08T06:20:46.536Z,6.60
2023-04-08T06:23:14.557Z,6.50
2023-04-08T06:25:42.988Z,6.50
2023-04-08T06:28:11.015Z,6.50
2023-04-08T06:30:40.395Z,6.50
2023-04-08T06:33:08.514Z,6.50
2023-04-08T06:35:37.372Z,6.50
2023-04-08T06:38:05.526Z,6.50
2023-04-08T06:40:33.677Z,6.50
2023-04-08T06:43:01.735Z,6.60
2023-04-08T06:45:35.965Z,6.50
2023-04-08T06:48:06.809Z,6.50
2023-04-08T06:50:34.935Z,6.60
2023-04-08T06:53:02.963Z,6.70
2023-04-08T06:55:31.118Z,6.70
2023-04-08T06:57:59.139Z,6.70
2023-04-08T07:00:27.297Z,6.60
2023-04-08T07:02:55.438Z,6.50
2023-04-08T07:05:24.838Z,6.50
2023-04-08T07:07:52.883Z,6.60
2023-04-08T07:10:21.261Z,6.50
2023-04-08T07:12:49.314Z,6.60
2023-04-08T07:15:17.464Z,6.60
2023-04-08T07:17:46.258Z,6.60
2023-04-08T07:20:14.735Z,6.60
2023-04-08T07:22:47.212Z,6.70
2023-04-08T07:25:15.273Z,6.60
2023-04-08T07:27:43.352Z,6.60
2023-04-08T07:30:11.781Z,6.70
2023-04-08T07:32:39.903Z,6.70
2023-04-08T07:35:08.493Z,6.80
2023-04-08T07:37:36.542Z,6.80
2023-04-08T07:40:07.087Z,6.80
2023-04-08T07:42:35.133Z,6.80
2023-04-08T07:45:03.947Z,6.70
2023-04-08T07:47:31.964Z,6.80
2023-04-08T07:50:00.026Z,6.80
2023-04-08T07:52:28.195Z,6.70
2023-04-08T07:54:56.259Z,6.80
2023-04-08T07:57:26.550Z,6.90
2023-04-08T07:59:54.939Z,7.00
2023-04-08T08:02:23.185Z,7.10
2023-04-08T08:04:51.566Z,7.10
2023-04-08T08:07:19.612Z,7.10
2023-04-08T08:09:47.623Z,7.10
2023-04-08T08:12:16.041Z,7.00
2023-04-08T08:14:45.411Z,7.10
2023-04-08T08:17:13.432Z,7.00
2023-04-08T08:19:41.488Z,7.00
2023-04-08T08:22:09.578Z,7.10
2023-04-08T08:24:37.984Z,7.20
2023-04-08T08:27:06.433Z,7.30
2023-04-08T08:29:34.472Z,7.20
2023-04-08T08:32:04.312Z,7.30
2023-04-08T08:34:32.383Z,7.40
2023-04-08T08:37:00.702Z,7.50
2023-04-08T08:39:28.779Z,7.50
2023-04-08T08:41:57.976Z,7.50
2023-04-08T08:44:27.070Z,7.40
2023-04-08T08:46:55.390Z,7.40
2023-04-08T08:49:24.972Z,7.40
2023-04-08T08:51:55.982Z,7.40
2023-04-08T08:54:24.249Z,7.40
2023-04-08T08:56:53.048Z,7.40
2023-04-08T08:59:21.225Z,7.40
2023-04-08T09:01:49.398Z,7.40
2023-04-08T09:04:23.076Z,7.40
2023-04-08T09:07:10.470Z,7.40
2023-04-08T09:09:50.083Z,7.50
2023-04-08T09:12:18.434Z,7.50
2023-04-08T09:14:47.020Z,7.50
2023-04-08T09:17:15.780Z,7.60
2023-04-08T09:20:09.643Z,7.50
2023-04-08T09:22:57.460Z,7.50
2023-04-08T09:25:26.440Z,7.50
2023-04-08T09:27:54.592Z,7.40
2023-04-08T09:30:25.115Z,7.60
2023-04-08T09:32:55.523Z,7.50
2023-04-08T09:35:24.391Z,7.50
2023-04-08T09:37:53.808Z,7.50
2023-04-08T09:40:23.048Z,7.50
2023-04-08T09:42:56.216Z,7.50
2023-04-08T09:45:28.236Z,7.60
2023-04-08T09:47:59.201Z,7.70
2023-04-08T09:50:33.620Z,7.70
2023-04-08T09:53:12.008Z,7.80
2023-04-08T09:55:41.051Z,7.90
2023-04-08T09:58:16.806Z,7.90
2023-04-08T10:00:50.690Z,8.00
2023-04-08T10:03:28.538Z,8.10
2023-04-08T10:05:57.500Z,8.10
2023-04-08T10:08:27.729Z,8.20
2023-04-08T10:10:57.457Z,8.30
2023-04-08T10:13:28.243Z,8.30
2023-04-08T10:16:20.089Z,8.40
2023-04-08T10:18:49.802Z,8.40
2023-04-08T10:21:38.020Z,8.50
2023-04-08T10:24:11.657Z,8.40
2023-04-08T10:26:42.190Z,8.40
2023-04-08T10:29:35.681Z,8.30
2023-04-08T10:32:03.853Z,8.30
2023-04-08T10:34:31.973Z,8.40
2023-04-08T10:37:02.164Z,8.50
2023-04-08T10:39:32.551Z,8.60
2023-04-08T10:42:04.158Z,8.60
2023-04-08T10:44:32.302Z,8.70
2023-04-08T10:47:00.304Z,8.70
2023-04-08T10:49:34.918Z,8.80
2023-04-08T10:52:08.174Z,8.80
2023-04-08T10:54:38.367Z,8.80
2023-04-08T10:57:07.417Z,8.90
2023-04-08T10:59:36.847Z,8.80
2023-04-08T11:02:04.999Z,8.90
2023-04-08T11:04:33.312Z,9.00
2023-04-08T11:07:01.487Z,9.10
2023-04-08T11:09:29.487Z,9.10
2023-04-08T11:11:58.921Z,9.00
2023-04-08T11:14:27.175Z,9.00
2023-04-08T11:16:55.296Z,9.10
2023-04-08T11:19:23.896Z,9.00
2023-04-08T11:21:52.649Z,9.00
2023-04-08T11:24:22.407Z,9.10
2023-04-08T11:26:50.910Z,9.20
2023-04-08T11:29:21.140Z,9.10
2023-04-08T11:31:50.030Z,9.10
2023-04-08T11:34:24.689Z,9.10
2023-04-08T11:36:53.280Z,9.10
2023-04-08T11:39:24.311Z,9.30
2023-04-08T11:41:53.197Z,9.30
2023-04-08T11:44:31.752Z,9.30
2023-04-08T11:47:01.917Z,9.30
2023-04-08T11:49:44.452Z,9.40
2023-04-08T11:52:12.499Z,9.40
2023-04-08T11:54:43.634Z,9.50
2023-04-08T11:57:11.713Z,9.50
2023-04-08T11:59:41.609Z,9.50
2023-04-08T12:02:10.096Z,9.30
2023-04-08T12:04:38.221Z,9.30
2023-04-08T12:07:06.309Z,9.50
2023-04-08T12:09:34.466Z,9.50
2023-04-08T12:12:03.294Z,9.50
2023-04-08T12:14:32.141Z,9.40
2023-04-08T12:17:01.536Z,9.40
2023-04-08T12:19:30.155Z,9.60
2023-04-08T12:21:59.792Z,9.60
2023-04-08T12:24:27.805Z,9.60
2023-04-08T12:26:56.687Z,9.70
2023-04-08T12:29:24.717Z,9.70
2023-04-08T12:31:53.291Z,9.80
2023-04-08T12:34:23.173Z,9.60
2023-04-08T12:36:51.394Z,9.70
2023-04-08T12:39:19.464Z,9.50
2023-04-08T12:41:47.569Z,9.50
2023-04-08T12:44:15.565Z,9.50
2023-04-08T12:46:43.839Z,9.60
2023-04-08T12:49:12.078Z,9.80
2023-04-08T12:51:41.586Z,9.80
2023-04-08T12:54:09.733Z,9.90
2023-04-08T12:56:39.056Z,9.70
2023-04-08T12:59:07.052Z,9.70
2023-04-08T13:01:35.203Z,9.70
2023-04-08T13:04:03.686Z,9.80
2023-04-08T13:06:31.976Z,9.90
2023-04-08T13:09:01.439Z,9.80
2023-04-08T13:11:29.495Z,9.60
2023-04-08T13:13:57.509Z,9.60
2023-04-08T13:16:25.711Z,9.50
2023-04-08T13:18:53.811Z,9.60
2023-04-08T13:21:21.843Z,9.60
2023-04-08T13:23:49.887Z,9.50
2023-04-08T13:26:19.243Z,9.50
2023-04-08T13:28:56.507Z,9.50
2023-04-08T13:31:25.800Z,9.70
2023-04-08T13:33:56.235Z,9.70
2023-04-08T13:36:26.791Z,9.60
2023-04-08T13:38:55.006Z,9.50
2023-04-08T13:41:25.358Z,9.50
2023-04-08T13:43:53.702Z,9.40
2023-04-08T13:46:21.877Z,9.50
2023-04-08T13:48:50.313Z,9.40
2023-04-08T13:51:18.560Z,9.40
2023-04-08T13:53:46.920Z,9.40
2023-04-08T13:56:14.940Z,9.30
2023-04-08T13:58:49.656Z,9.30
2023-04-08T14:01:20.579Z,9.10
2023-04-08T14:03:49.888Z,9.10
2023-04-08T14:06:17.924Z,9.20
2023-04-08T14:08:45.959Z,9.10
2023-04-08T14:11:13.983Z,9.20
2023-04-08T14:13:42.009Z,9.30
2023-04-08T14:16:11.389Z,9.40
2023-04-08T14:18:39.421Z,9.40
2023-04-08T14:21:07.689Z,9.40
2023-04-08T14:23:35.825Z,9.50
2023-04-08T14:26:03.882Z,9.60
2023-04-08T14:28:31.902Z,9.40
2023-04-08T14:30:59.964Z,9.40
2023-04-08T14:33:29.380Z,9.30
2023-04-08T14:35:58.939Z,9.20
2023-04-08T14:38:27.816Z,9.20
2023-04-08T14:40:55.824Z,9.20
2023-04-08T14:43:23.883Z,9.10
2023-04-08T14:45:52.499Z,9.00
2023-04-08T14:48:21.026Z,9.10
2023-04-08T14:50:50.570Z,9.10
2023-04-08T14:53:18.625Z,9.10
2023-04-08T14:55:46.851Z,9.10
2023-04-08T14:58:14.997Z,9.20
2023-04-08T15:00:44.632Z,9.00
2023-04-08T15:03:12.788Z,8.90
2023-04-08T15:05:41.022Z,8.80
2023-04-08T15:08:10.843Z,9.10
2023-04-08T15:10:39.005Z,9.20
2023-04-08T15:13:07.140Z,9.10
2023-04-08T15:15:35.378Z,9.00
2023-04-08T15:18:03.458Z,9.00
2023-04-08T15:20:31.586Z,9.10
2023-04-08T15:22:59.675Z,9.10
2023-04-08T15:25:29.125Z,9.00
2023-04-08T15:27:57.197Z,9.00
2023-04-08T15:30:25.560Z,9.00
2023-04-08T15:32:55.714Z,8.90
2023-04-08T15:35:25.447Z,8.90
2023-04-08T15:37:53.489Z,8.80
2023-04-08T15:40:22.537Z,8.80
2023-04-08T15:42:51.888Z,9.00
2023-04-08T15:45:20.602Z,8.90
2023-04-08T15:47:48.678Z,8.90
2023-04-08T15:50:17.369Z,8.80
2023-04-08T15:52:45.632Z,8.90
2023-04-08T15:55:14.014Z,8.90
2023-04-08T15:57:42.395Z,8.80
2023-04-08T16:00:15.474Z,8.80
2023-04-08T16:02:46.580Z,8.70
2023-04-08T16:05:14.911Z,8.70
2023-04-08T16:07:43.115Z,8.70
2023-04-08T16:10:11.641Z,8.70
2023-04-08T16:12:39.716Z,8.70
2023-04-08T16:15:08.464Z,8.70
2023-04-08T16:17:37.991Z,8.70
2023-04-08T16:20:06.976Z,8.70
2023-04-08T16:22:35.052Z,8.60
2023-04-08T16:25:03.392Z,8.60
2023-04-08T16:27:31.404Z,8.60
2023-04-08T16:29:59.412Z,8.70
2023-04-08T16:32:27.915Z,8.60
2023-04-08T16:34:57.494Z,8.60
2023-04-08T16:37:25.953Z,8.50
2023-04-08T16:39:54.436Z,8.50
2023-04-08T16:42:22.543Z,8.50
2023-04-08T16:44:50.725Z,8.50
2023-04-08T16:47:18.770Z,8.40
2023-04-08T16:49:46.905Z,8.40
2023-04-08T16:52:16.295Z,8.40
2023-04-08T16:54:44.436Z,8.40
2023-04-08T16:57:12.551Z,8.30
2023-04-08T16:59:40.661Z,8.30
2023-04-08T17:02:08.891Z,8.20
2023-04-08T17:04:37.011Z,8.20
2023-04-08T17:07:05.463Z,8.10
2023-04-08T17:09:34.908Z,8.20
2023-04-08T17:12:03.154Z,8.20
2023-04-08T17:14:31.291Z,8.20
2023-04-08T17:16:59.308Z,8.20
2023-04-08T17:19:27.422Z,8.20
2023-04-08T17:21:55.464Z,8.20
2023-04-08T17:24:23.540Z,8.30
2023-04-08T17:26:53.063Z,8.20
2023-04-08T17:29:21.084Z,8.20
2023-04-08T17:31:49.114Z,8.20
2023-04-08T17:34:17.238Z,8.20
2023-04-08T17:36:45.932Z,8.10
2023-04-08T17:39:13.988Z,8.10
2023-04-08T17:41:43.414Z,8.10
2023-04-08T17:44:14.030Z,8.10
2023-04-08T17:46:43.143Z,8.10
2023-04-08T17:49:12.843Z,8.00
2023-04-08T17:51:41.105Z,8.00
2023-04-08T17:54:09.183Z,8.00
2023-04-08T17:56:37.296Z,8.00
2023-04-08T17:59:05.410Z,8.00
2023-04-08T18:01:37.289Z,8.00
2023-04-08T18:04:08.265Z,8.10
2023-04-08T18:06:36.944Z,8.00
2023-04-08T18:09:05.429Z,8.00
2023-04-08T18:11:33.878Z,8.10
2023-04-08T18:14:01.972Z,8.10
2023-04-08T18:16:30.071Z,8.10
2023-04-08T18:18:59.453Z,8.10
2023-04-08T18:21:27.444Z,8.00
2023-04-08T18:23:55.537Z,8.00
2023-04-08T18:26:23.600Z,8.00
2023-04-08T18:28:51.610Z,8.00
2023-04-08T18:31:19.685Z,8.00
2023-04-08T18:33:47.787Z,7.90
2023-04-08T18:36:17.425Z,8.00
2023-04-08T18:38:45.690Z,7.90
2023-04-08T18:41:13.907Z,7.90
2023-04-08T18:43:42.001Z,7.90
2023-04-08T18:46:10.108Z,7.90
2023-04-08T18:48:38.262Z,7.90
2023-04-08T18:51:06.382Z,7.90
2023-04-08T18:53:36.059Z,7.80
2023-04-08T18:56:04.711Z,7.80
2023-04-08T18:58:33.420Z,7.80
2023-04-08T19:01:01.453Z,7.80
2023-04-08T19:03:29.581Z,7.80
2023-04-08T19:05:57.619Z,7.80
2023-04-08T19:08:25.663Z,7.80
2023-04-08T19:10:55.091Z,7.80
2023-04-08T19:13:23.786Z,7.80
2023-04-08T19:15:51.859Z,7.80
2023-04-08T19:18:19.975Z,7.70
2023-04-08T19:20:48.144Z,7.70
2023-04-08T19:23:18.786Z,7.70
2023-04-08T19:25:47.325Z,7.60
2023-04-08T19:28:16.723Z,7.60
2023-04-08T19:30:44.878Z,7.70
2023-04-08T19:33:13.775Z,7.70
2023-04-08T19:35:42.131Z,7.70
2023-04-08T19:38:10.196Z,7.70
2023-04-08T19:40:38.315Z,7.70
2023-04-08T19:43:06.370Z,7.80
2023-04-08T19:45:35.786Z,7.90
2023-04-08T19:48:03.827Z,7.80
2023-04-08T19:50:31.926Z,7.80
2023-04-08T19:53:00.012Z,7.80
2023-04-08T19:55:28.071Z,7.90
2023-04-08T19:57:56.395Z,7.90
2023-04-08T20:00:25.915Z,7.90
2023-04-08T20:02:55.588Z,7.90
2023-04-08T20:05:23.970Z,7.90
2023-04-08T20:07:52.079Z,7.80
2023-04-08T20:10:20.582Z,7.90
2023-04-08T20:12:48.607Z,7.90
2023-04-08T20:15:24.677Z,7.90
2023-04-08T20:17:55.300Z,8.10
2023-04-08T20:20:24.016Z,8.00
2023-04-08T20:22:52.013Z,7.90
2023-04-08T20:25:20.189Z,7.80
2023-04-08T20:27:48.216Z,7.80
2023-04-08T20:30:16.669Z,7.80
2023-04-08T20:32:44.726Z,7.80
2023-04-08T20:35:14.775Z,7.80
2023-04-08T20:37:43.395Z,7.70
2023-04-08T20:40:11.992Z,7.70
2023-04-08T20:42:40.562Z,7.70
2023-04-08T20:45:10.568Z,7.70
2023-04-08T20:47:39.008Z,7.70
2023-04-08T20:50:09.156Z,7.70
2023-04-08T20:52:39.691Z,7.60
2023-04-08T20:55:09.596Z,7.70
2023-04-08T20:57:37.748Z,7.80
2023-04-08T21:00:07.580Z,8.00
2023-04-08T21:02:36.414Z,8.00
2023-04-08T21:05:05.025Z,7.90
2023-04-08T21:07:33.145Z,7.80
2023-04-08T21:10:02.685Z,7.70
2023-04-08T21:12:31.200Z,7.70
2023-04-08T21:14:59.634Z,7.70
2023-04-08T21:17:30.634Z,7.70
2023-04-08T21:19:59.260Z,7.70
2023-04-08T21:22:27.357Z,7.70
2023-04-08T21:24:56.832Z,7.70
2023-04-08T21:27:26.469Z,7.70
2023-04-08T21:29:54.594Z,8.00
2023-04-08T21:32:22.735Z,8.00
2023-04-08T21:34:56.695Z,8.10
2023-04-08T21:37:24.765Z,8.10
2023-04-08T21:39:53.791Z,7.90
2023-04-08T21:42:22.880Z,7.90
2023-04-08T21:44:52.404Z,7.90
2023-04-08T21:47:20.480Z,7.90
2023-04-08T21:49:48.987Z,8.20
2023-04-08T21:52:17.843Z,8.30
2023-04-08T21:54:49.575Z,8.40
2023-04-08T21:57:17.611Z,8.20
2023-04-08T21:59:45.876Z,8.00
2023-04-08T22:02:15.919Z,8.00
2023-04-08T22:04:44.703Z,8.40
2023-04-08T22:07:13.242Z,8.50
2023-04-08T22:09:41.509Z,8.60
2023-04-08T22:12:11.132Z,8.50
2023-04-08T22:14:39.257Z,8.40
2023-04-08T22:17:07.418Z,8.40
2023-04-08T22:19:36.847Z,8.20
2023-04-08T22:22:04.925Z,8.10
2023-04-08T22:24:33.027Z,8.10
2023-04-08T22:27:01.332Z,8.10
2023-04-08T22:29:29.363Z,8.00
2023-04-08T22:31:57.419Z,8.00
2023-04-08T22:34:25.585Z,8.00
2023-04-08T22:36:55.003Z,8.00
2023-04-08T22:39:23.045Z,7.90
2023-04-08T22:41:51.124Z,7.90
2023-04-08T22:44:19.163Z,7.90
2023-04-08T22:46:47.216Z,7.80
2023-04-08T22:49:15.685Z,7.90
2023-04-08T22:51:43.813Z,7.80
2023-04-08T22:54:13.226Z,7.80
2023-04-08T22:56:41.282Z,7.90
2023-04-08T22:59:09.320Z,8.00
2023-04-08T23:01:37.674Z,8.10
2023-04-08T23:04:06.047Z,8.10
2023-04-08T23:06:34.181Z,8.20
2023-04-08T23:09:02.199Z,8.20
2023-04-08T23:11:31.603Z,8.20
2023-04-08T23:13:59.628Z,8.10
2023-04-08T23:16:27.625Z,8.00
2023-04-08T23:18:55.692Z,7.90
2023-04-08T23:21:23.742Z,7.90
2023-04-08T23:23:51.842Z,7.90
2023-04-08T23:26:20.847Z,7.90
2023-04-08T23:28:50.636Z,7.90
2023-04-08T23:31:19.068Z,7.90
2023-04-08T23:33:47.168Z,8.00
2023-04-08T23:36:15.356Z,8.00
2023-04-08T23:38:43.378Z,8.00
2023-04-08T23:41:11.410Z,7.90
2023-04-08T23:43:39.436Z,7.90
2023-04-08T23:46:08.796Z,7.90
2023-04-08T23:48:36.834Z,7.90
2023-04-08T23:51:05.542Z,7.90
2023-04-08T23:53:33.555Z,7.90
2023-04-08T23:56:06.621Z,7.90
2023-04-08T23:58:34.731Z,8.00
